sensor_id;sensor_type;location;lat;lon;timestamp;temperature;humidity
4097;DHT22;2062;50.694;7.246;2023-03-19T00:02:27;13.30;44.80
4097;DHT22;2062;50.694;7.246;2023-03-19T00:04:54;13.20;44.80
4097;DHT22;2062;50.694;7.246;2023-03-19T00:07:21;13.20;44.80
4097;DHT22;2062;50.694;7.246;2023-03-19T00:09:48;13.20;44.90
4097;DHT22;2062;50.694;7.246;2023-03-19T00:12:14;13.20;45.00
4097;DHT22;2062;50.694;7.246;2023-03-19T00:14:41;13.20;45.00
4097;DHT22;2062;50.694;7.246;2023-03-19T00:17:08;13.20;45.00
4097;DHT22;2062;50.694;7.246;2023-03-19T00:19:37;13.20;45.00
4097;DHT22;2062;50.694;7.246;2023-03-19T00:22:03;13.20;45.10
4097;DHT22;2062;50.694;7.246;2023-03-19T00:24:31;13.20;45.10
4097;DHT22;2062;50.694;7.246;2023-03-19T00:26:59;13.20;45.20
4097;DHT22;2062;50.694;7.246;2023-03-19T00:29:25;13.10;45.20
4097;DHT22;2062;50.694;7.246;2023-03-19T00:31:52;13.10;45.20
4097;DHT22;2062;50.694;7.246;2023-03-19T00:34:19;13.10;45.20
4097;DHT22;2062;50.694;7.246;2023-03-19T00:36:47;13.10;45.30
4097;DHT22;2062;50.694;7.246;2023-03-19T00:39:14;13.10;45.40
4097;DHT22;2062;50.694;7.246;2023-03-19T00:41:40;13.10;45.50
4097;DHT22;2062;50.694;7.246;2023-03-19T00:44:15;13.00;45.40
4097;DHT22;2062;50.694;7.246;2023-03-19T00:46:41;13.00;45.50
4097;DHT22;2062;50.694;7.246;2023-03-19T00:49:08;13.00;45.60
4097;DHT22;2062;50.694;7.246;2023-03-19T00:51:35;13.00;45.60
4097;DHT22;2062;50.694;7.246;2023-03-19T00:54:03;13.00;45.70
4097;DHT22;2062;50.694;7.246;2023-03-19T00:56:30;13.00;45.70
4097;DHT22;2062;50.694;7.246;2023-03-19T00:58:57;13.00;45.70
4097;DHT22;2062;50.694;7.246;2023-03-19T01:01:23;13.00;45.80
4097;DHT22;2062;50.694;7.246;2023-03-19T01:03:50;13.10;46.00
4097;DHT22;2062;50.694;7.246;2023-03-19T01:06:17;12.90;45.90
4097;DHT22;2062;50.694;7.246;2023-03-19T01:08:44;12.90;45.90
4097;DHT22;2062;50.694;7.246;2023-03-19T01:11:13;12.90;46.00
4097;DHT22;2062;50.694;7.246;2023-03-19T01:13:42;12.90;46.00
4097;DHT22;2062;50.694;7.246;2023-03-19T01:16:09;12.90;46.00
4097;DHT22;2062;50.694;7.246;2023-03-19T01:18:36;12.90;46.10
4097;DHT22;2062;50.694;7.246;2023-03-19T01:21:03;12.80;46.00
4097;DHT22;2062;50.694;7.246;2023-03-19T01:23:30;12.80;46.00
4097;DHT22;2062;50.694;7.246;2023-03-19T01:25:57;12.80;46.00
4097;DHT22;2062;50.694;7.246;2023-03-19T01:28:25;12.80;46.10
4097;DHT22;2062;50.694;7.246;2023-03-19T01:30:52;12.80;46.70
4097;DHT22;2062;50.694;7.246;2023-03-19T01:33:18;12.80;46.10
4097;DHT22;2062;50.694;7.246;2023-03-19T01:35:45;12.80;46.10
4097;DHT22;2062;50.694;7.246;2023-03-19T01:38:13;12.80;46.10
4097;DHT22;2062;50.694;7.246;2023-03-19T01:40:45;12.90;46.20
4097;DHT22;2062;50.694;7.246;2023-03-19T01:43:15;12.80;46.20
4097;DHT22;2062;50.694;7.246;2023-03-19T01:45:45;12.70;46.20
4097;DHT22;2062;50.694;7.246;2023-03-19T01:48:19;12.70;46.30
4097;DHT22;2062;50.694;7.246;2023-03-19T01:50:49;12.70;46.40
4097;DHT22;2062;50.694;7.246;2023-03-19T01:53:20;12.70;46.40
4097;DHT22;2062;50.694;7.246;2023-03-19T01:55:48;12.70;46.40
4097;DHT22;2062;50.694;7.246;2023-03-19T01:58:16;12.70;46.30
4097;DHT22;2062;50.694;7.246;2023-03-19T02:00:44;12.70;46.40
4097;DHT22;2062;50.694;7.246;2023-03-19T02:03:12;12.70;46.50
4097;DHT22;2062;50.694;7.246;2023-03-19T02:05:40;12.60;46.50
4097;DHT22;2062;50.694;7.246;2023-03-19T02:08:12;12.60;46.50
4097;DHT22;2062;50.694;7.246;2023-03-19T02:10:40;12.60;46.60
4097;DHT22;2062;50.694;7.246;2023-03-19T02:13:07;12.60;46.50
4097;DHT22;2062;50.694;7.246;2023-03-19T02:15:34;12.60;46.60
4097;DHT22;2062;50.694;7.246;2023-03-19T02:18:02;12.50;46.60
4097;DHT22;2062;50.694;7.246;2023-03-19T02:20:31;12.50;46.60
4097;DHT22;2062;50.694;7.246;2023-03-19T02:23:05;12.50;46.60
4097;DHT22;2062;50.694;7.246;2023-03-19T02:25:38;12.50;46.70
4097;DHT22;2062;50.694;7.246;2023-03-19T02:28:10;12.40;46.70
4097;DHT22;2062;50.694;7.246;2023-03-19T02:30:38;12.50;46.70
4097;DHT22;2062;50.694;7.246;2023-03-19T02:33:05;12.40;46.70
4097;DHT22;2062;50.694;7.246;2023-03-19T02:35:33;12.40;47.50
4097;DHT22;2062;50.694;7.246;2023-03-19T02:38:02;12.40;46.80
4097;DHT22;2062;50.694;7.246;2023-03-19T02:40:33;12.40;46.90
4097;DHT22;2062;50.694;7.246;2023-03-19T02:43:01;12.40;47.00
4097;DHT22;2062;50.694;7.246;2023-03-19T02:45:30;12.30;47.00
4097;DHT22;2062;50.694;7.246;2023-03-19T02:47:57;12.40;46.90
4097;DHT22;2062;50.694;7.246;2023-03-19T02:50:24;12.30;47.00
4097;DHT22;2062;50.694;7.246;2023-03-19T02:52:51;12.30;47.20
4097;DHT22;2062;50.694;7.246;2023-03-19T02:55:18;12.30;47.10
4097;DHT22;2062;50.694;7.246;2023-03-19T02:57:46;12.30;47.20
4097;DHT22;2062;50.694;7.246;2023-03-19T03:00:14;12.30;47.30
4097;DHT22;2062;50.694;7.246;2023-03-19T03:02:43;12.30;47.30
4097;DHT22;2062;50.694;7.246;2023-03-19T03:05:10;12.20;47.20
4097;DHT22;2062;50.694;7.246;2023-03-19T03:07:36;12.30;47.30
4097;DHT22;2062;50.694;7.246;2023-03-19T03:10:05;12.30;47.40
4097;DHT22;2062;50.694;7.246;2023-03-19T03:12:32;12.20;47.30
4097;DHT22;2062;50.694;7.246;2023-03-19T03:14:59;12.20;47.40
4097;DHT22;2062;50.694;7.246;2023-03-19T03:17:26;12.20;47.50
4097;DHT22;2062;50.694;7.246;2023-03-19T03:19:55;12.20;47.50
4097;DHT22;2062;50.694;7.246;2023-03-19T03:22:22;12.20;47.40
4097;DHT22;2062;50.694;7.246;2023-03-19T03:24:48;12.30;47.50
4097;DHT22;2062;50.694;7.246;2023-03-19T03:27:15;12.20;47.50
4097;DHT22;2062;50.694;7.246;2023-03-19T03:29:42;12.20;47.50
4097;DHT22;2062;50.694;7.246;2023-03-19T03:32:09;12.20;47.40
4097;DHT22;2062;50.694;7.246;2023-03-19T03:34:36;12.30;47.70
4097;DHT22;2062;50.694;7.246;2023-03-19T03:37:05;12.20;47.60
4097;DHT22;2062;50.694;7.246;2023-03-19T03:39:32;12.30;47.70
4097;DHT22;2062;50.694;7.246;2023-03-19T03:41:59;12.20;47.80
4097;DHT22;2062;50.694;7.246;2023-03-19T03:44:26;12.20;47.70
4097;DHT22;2062;50.694;7.246;2023-03-19T03:46:52;12.20;47.60
4097;DHT22;2062;50.694;7.246;2023-03-19T03:49:20;12.20;47.70
4097;DHT22;2062;50.694;7.246;2023-03-19T03:51:47;12.20;47.70
4097;DHT22;2062;50.694;7.246;2023-03-19T03:54:15;12.30;47.80
4097;DHT22;2062;50.694;7.246;2023-03-19T03:56:42;12.20;47.70
4097;DHT22;2062;50.694;7.246;2023-03-19T03:59:08;12.20;47.70
4097;DHT22;2062;50.694;7.246;2023-03-19T04:01:35;12.30;47.80
4097;DHT22;2062;50.694;7.246;2023-03-19T04:04:02;12.20;47.80
4097;DHT22;2062;50.694;7.246;2023-03-19T04:06:29;12.20;47.80
4097;DHT22;2062;50.694;7.246;2023-03-19T04:08:56;12.20;47.90
4097;DHT22;2062;50.694;7.246;2023-03-19T04:11:24;12.20;47.90
4097;DHT22;2062;50.694;7.246;2023-03-19T04:13:53;12.20;47.90
4097;DHT22;2062;50.694;7.246;2023-03-19T04:16:21;12.20;48.00
4097;DHT22;2062;50.694;7.246;2023-03-19T04:18:47;12.30;48.10
4097;DHT22;2062;50.694;7.246;2023-03-19T04:21:14;12.20;48.00
4097;DHT22;2062;50.694;7.246;2023-03-19T04:23:41;12.20;48.10
4097;DHT22;2062;50.694;7.246;2023-03-19T04:26:09;12.20;48.10
4097;DHT22;2062;50.694;7.246;2023-03-19T04:28:38;12.10;48.10
4097;DHT22;2062;50.694;7.246;2023-03-19T04:31:06;12.20;48.10
4097;DHT22;2062;50.694;7.246;2023-03-19T04:33:34;12.10;48.20
4097;DHT22;2062;50.694;7.246;2023-03-19T04:36:01;12.10;48.20
4097;DHT22;2062;50.694;7.246;2023-03-19T04:38:28;12.10;48.30
4097;DHT22;2062;50.694;7.246;2023-03-19T04:40:56;12.10;48.30
4097;DHT22;2062;50.694;7.246;2023-03-19T04:43:23;12.10;48.30
4097;DHT22;2062;50.694;7.246;2023-03-19T04:45:52;12.10;48.30
4097;DHT22;2062;50.694;7.246;2023-03-19T04:48:19;12.00;48.30
4097;DHT22;2062;50.694;7.246;2023-03-19T04:50:46;12.00;48.40
4097;DHT22;2062;50.694;7.246;2023-03-19T04:53:17;12.00;48.50
4097;DHT22;2062;50.694;7.246;2023-03-19T04:55:45;12.00;48.60
4097;DHT22;2062;50.694;7.246;2023-03-19T04:58:12;12.00;48.60
4097;DHT22;2062;50.694;7.246;2023-03-19T05:00:39;11.90;48.60
4097;DHT22;2062;50.694;7.246;2023-03-19T05:03:07;11.90;48.70
4097;DHT22;2062;50.694;7.246;2023-03-19T05:05:34;11.90;48.80
4097;DHT22;2062;50.694;7.246;2023-03-19T05:08:01;11.90;48.80
4097;DHT22;2062;50.694;7.246;2023-03-19T05:10:28;11.90;48.80
4097;DHT22;2062;50.694;7.246;2023-03-19T05:12:54;11.90;48.80
4097;DHT22;2062;50.694;7.246;2023-03-19T05:15:21;11.80;48.70
4097;DHT22;2062;50.694;7.246;2023-03-19T05:17:48;11.80;48.80
4097;DHT22;2062;50.694;7.246;2023-03-19T05:20:17;11.80;48.70
4097;DHT22;2062;50.694;7.246;2023-03-19T05:22:44;11.80;48.80
4097;DHT22;2062;50.694;7.246;2023-03-19T05:25:12;11.80;48.80
4097;DHT22;2062;50.694;7.246;2023-03-19T05:27:40;11.80;48.80
4097;DHT22;2062;50.694;7.246;2023-03-19T05:30:08;11.70;48.90
4097;DHT22;2062;50.694;7.246;2023-03-19T05:32:35;11.70;48.90
4097;DHT22;2062;50.694;7.246;2023-03-19T05:35:03;11.70;49.00
4097;DHT22;2062;50.694;7.246;2023-03-19T05:37:32;11.70;49.00
4097;DHT22;2062;50.694;7.246;2023-03-19T05:39:59;11.70;49.10
4097;DHT22;2062;50.694;7.246;2023-03-19T05:42:26;11.70;49.10
4097;DHT22;2062;50.694;7.246;2023-03-19T05:44:52;11.70;49.20
4097;DHT22;2062;50.694;7.246;2023-03-19T05:47:19;11.70;49.30
4097;DHT22;2062;50.694;7.246;2023-03-19T05:49:47;11.70;49.40
4097;DHT22;2062;50.694;7.246;2023-03-19T05:52:14;11.70;49.40
4097;DHT22;2062;50.694;7.246;2023-03-19T05:54:42;11.70;49.50
4097;DHT22;2062;50.694;7.246;2023-03-19T05:57:13;11.70;50.30
4097;DHT22;2062;50.694;7.246;2023-03-19T05:59:40;11.70;49.50
4097;DHT22;2062;50.694;7.246;2023-03-19T06:02:08;11.70;49.60
4097;DHT22;2062;50.694;7.246;2023-03-19T06:04:35;11.70;49.70
4097;DHT22;2062;50.694;7.246;2023-03-19T06:07:02;11.70;49.70
4097;DHT22;2062;50.694;7.246;2023-03-19T06:09:29;11.70;49.80
4097;DHT22;2062;50.694;7.246;2023-03-19T06:11:57;11.70;49.80
4097;DHT22;2062;50.694;7.246;2023-03-19T06:14:25;11.70;50.60
4097;DHT22;2062;50.694;7.246;2023-03-19T06:16:52;11.70;50.00
4097;DHT22;2062;50.694;7.246;2023-03-19T06:19:19;11.70;50.00
4097;DHT22;2062;50.694;7.246;2023-03-19T06:21:46;11.70;50.10
4097;DHT22;2062;50.694;7.246;2023-03-19T06:24:13;11.70;50.20
4097;DHT22;2062;50.694;7.246;2023-03-19T06:26:40;11.70;50.40
4097;DHT22;2062;50.694;7.246;2023-03-19T06:29:41;11.70;50.50
4097;DHT22;2062;50.694;7.246;2023-03-19T06:32:09;11.70;50.70
4097;DHT22;2062;50.694;7.246;2023-03-19T06:34:35;11.70;50.50
4097;DHT22;2062;50.694;7.246;2023-03-19T06:37:03;11.70;50.40
4097;DHT22;2062;50.694;7.246;2023-03-19T06:39:30;11.70;50.40
4097;DHT22;2062;50.694;7.246;2023-03-19T06:41:57;11.80;50.40
4097;DHT22;2062;50.694;7.246;2023-03-19T06:44:24;11.80;50.50
4097;DHT22;2062;50.694;7.246;2023-03-19T06:46:52;11.80;50.50
4097;DHT22;2062;50.694;7.246;2023-03-19T06:49:19;11.80;50.50
4097;DHT22;2062;50.694;7.246;2023-03-19T06:51:46;11.90;50.60
4097;DHT22;2062;50.694;7.246;2023-03-19T06:54:13;11.80;50.60
4097;DHT22;2062;50.694;7.246;2023-03-19T06:56:39;11.90;50.70
4097;DHT22;2062;50.694;7.246;2023-03-19T06:59:06;11.90;50.60
4097;DHT22;2062;50.694;7.246;2023-03-19T07:01:36;11.90;50.70
4097;DHT22;2062;50.694;7.246;2023-03-19T07:04:05;11.90;50.80
4097;DHT22;2062;50.694;7.246;2023-03-19T07:06:32;12.00;50.70
4097;DHT22;2062;50.694;7.246;2023-03-19T07:08:59;12.00;50.70
4097;DHT22;2062;50.694;7.246;2023-03-19T07:11:25;12.00;50.70
4097;DHT22;2062;50.694;7.246;2023-03-19T07:13:52;12.00;50.70
4097;DHT22;2062;50.694;7.246;2023-03-19T07:16:19;12.00;50.70
4097;DHT22;2062;50.694;7.246;2023-03-19T07:18:46;12.00;50.60
4097;DHT22;2062;50.694;7.246;2023-03-19T07:21:14;12.10;50.80
4097;DHT22;2062;50.694;7.246;2023-03-19T07:23:41;12.10;50.80
4097;DHT22;2062;50.694;7.246;2023-03-19T07:26:08;12.10;50.80
4097;DHT22;2062;50.694;7.246;2023-03-19T07:28:36;12.10;50.80
4097;DHT22;2062;50.694;7.246;2023-03-19T07:31:03;12.10;50.70
4097;DHT22;2062;50.694;7.246;2023-03-19T07:33:30;12.20;50.70
4097;DHT22;2062;50.694;7.246;2023-03-19T07:35:57;12.20;50.80
4097;DHT22;2062;50.694;7.246;2023-03-19T07:38:25;12.30;50.90
4097;DHT22;2062;50.694;7.246;2023-03-19T07:40:52;12.30;51.00
4097;DHT22;2062;50.694;7.246;2023-03-19T07:43:19;12.30;50.90
4097;DHT22;2062;50.694;7.246;2023-03-19T07:45:45;12.40;51.00
4097;DHT22;2062;50.694;7.246;2023-03-19T07:48:12;12.40;51.10
4097;DHT22;2062;50.694;7.246;2023-03-19T07:50:39;12.50;51.20
4097;DHT22;2062;50.694;7.246;2023-03-19T07:53:06;12.50;51.30
4097;DHT22;2062;50.694;7.246;2023-03-19T07:55:34;12.50;51.30
4097;DHT22;2062;50.694;7.246;2023-03-19T07:58:02;12.60;51.30
4097;DHT22;2062;50.694;7.246;2023-03-19T08:00:29;12.70;51.40
4097;DHT22;2062;50.694;7.246;2023-03-19T08:02:56;12.70;51.50
4097;DHT22;2062;50.694;7.246;2023-03-19T08:05:23;12.70;51.50
4097;DHT22;2062;50.694;7.246;2023-03-19T08:07:50;12.80;51.70
4097;DHT22;2062;50.694;7.246;2023-03-19T08:10:17;12.80;51.50
4097;DHT22;2062;50.694;7.246;2023-03-19T08:12:45;12.80;51.50
4097;DHT22;2062;50.694;7.246;2023-03-19T08:15:13;12.80;51.50
4097;DHT22;2062;50.694;7.246;2023-03-19T08:17:40;12.80;51.50
4097;DHT22;2062;50.694;7.246;2023-03-19T08:20:09;12.90;51.60
4097;DHT22;2062;50.694;7.246;2023-03-19T08:22:36;12.90;51.60
4097;DHT22;2062;50.694;7.246;2023-03-19T08:25:05;12.90;51.70
4097;DHT22;2062;50.694;7.246;2023-03-19T08:27:33;12.90;51.80
4097;DHT22;2062;50.694;7.246;2023-03-19T08:30:02;12.90;51.70
4097;DHT22;2062;50.694;7.246;2023-03-19T08:32:29;13.00;51.70
4097;DHT22;2062;50.694;7.246;2023-03-19T08:34:56;12.90;51.70
4097;DHT22;2062;50.694;7.246;2023-03-19T08:37:23;13.00;51.70
4097;DHT22;2062;50.694;7.246;2023-03-19T08:39:50;13.00;51.70
4097;DHT22;2062;50.694;7.246;2023-03-19T08:42:18;13.00;51.80
4097;DHT22;2062;50.694;7.246;2023-03-19T08:44:47;13.00;51.80
4097;DHT22;2062;50.694;7.246;2023-03-19T08:47:15;13.00;51.90
4097;DHT22;2062;50.694;7.246;2023-03-19T08:49:42;13.00;51.90
4097;DHT22;2062;50.694;7.246;2023-03-19T08:52:12;13.00;52.00
4097;DHT22;2062;50.694;7.246;2023-03-19T08:54:38;13.10;52.00
4097;DHT22;2062;50.694;7.246;2023-03-19T08:57:05;13.10;52.00
4097;DHT22;2062;50.694;7.246;2023-03-19T08:59:32;13.10;51.80
4097;DHT22;2062;50.694;7.246;2023-03-19T09:01:59;13.20;51.80
4097;DHT22;2062;50.694;7.246;2023-03-19T09:04:27;13.20;51.70
4097;DHT22;2062;50.694;7.246;2023-03-19T09:06:54;13.20;51.70
4097;DHT22;2062;50.694;7.246;2023-03-19T09:09:23;13.20;51.80
4097;DHT22;2062;50.694;7.246;2023-03-19T09:11:50;13.20;51.70
4097;DHT22;2062;50.694;7.246;2023-03-19T09:14:18;13.20;51.70
4097;DHT22;2062;50.694;7.246;2023-03-19T09:16:45;13.20;51.70
4097;DHT22;2062;50.694;7.246;2023-03-19T09:19:12;13.10;51.80
4097;DHT22;2062;50.694;7.246;2023-03-19T09:21:40;13.10;51.80
4097;DHT22;2062;50.694;7.246;2023-03-19T09:24:08;13.10;52.00
4097;DHT22;2062;50.694;7.246;2023-03-19T09:26:35;13.10;52.10
4097;DHT22;2062;50.694;7.246;2023-03-19T09:29:02;13.10;52.20
4097;DHT22;2062;50.694;7.246;2023-03-19T09:31:29;13.00;52.40
4097;DHT22;2062;50.694;7.246;2023-03-19T09:33:56;13.00;52.80
4097;DHT22;2062;50.694;7.246;2023-03-19T09:36:23;13.00;52.80
4097;DHT22;2062;50.694;7.246;2023-03-19T09:38:52;13.00;52.90
4097;DHT22;2062;50.694;7.246;2023-03-19T09:41:28;13.00;53.10
4097;DHT22;2062;50.694;7.246;2023-03-19T09:44:00;13.00;53.30
4097;DHT22;2062;50.694;7.246;2023-03-19T09:46:33;13.00;53.40
4097;DHT22;2062;50.694;7.246;2023-03-19T09:49:06;13.10;53.50
4097;DHT22;2062;50.694;7.246;2023-03-19T09:51:42;13.10;53.60
4097;DHT22;2062;50.694;7.246;2023-03-19T09:54:28;13.10;53.50
4097;DHT22;2062;50.694;7.246;2023-03-19T09:56:55;13.10;53.70
4097;DHT22;2062;50.694;7.246;2023-03-19T09:59:23;13.20;53.50
4097;DHT22;2062;50.694;7.246;2023-03-19T10:01:57;13.20;53.70
4097;DHT22;2062;50.694;7.246;2023-03-19T10:04:40;13.20;53.60
4097;DHT22;2062;50.694;7.246;2023-03-19T10:07:17;13.30;53.80
4097;DHT22;2062;50.694;7.246;2023-03-19T10:09:58;13.30;53.90
4097;DHT22;2062;50.694;7.246;2023-03-19T10:12:38;13.40;53.90
4097;DHT22;2062;50.694;7.246;2023-03-19T10:15:17;13.40;53.90
4097;DHT22;2062;50.694;7.246;2023-03-19T10:17:53;13.50;54.00
4097;DHT22;2062;50.694;7.246;2023-03-19T10:20:28;13.50;54.00
4097;DHT22;2062;50.694;7.246;2023-03-19T10:23:01;13.50;54.00
4097;DHT22;2062;50.694;7.246;2023-03-19T10:25:31;13.60;53.90
4097;DHT22;2062;50.694;7.246;2023-03-19T10:28:06;13.70;53.90
4097;DHT22;2062;50.694;7.246;2023-03-19T10:30:38;13.70;54.00
4097;DHT22;2062;50.694;7.246;2023-03-19T10:33:13;13.70;53.90
4097;DHT22;2062;50.694;7.246;2023-03-19T10:35:44;13.70;53.90
4097;DHT22;2062;50.694;7.246;2023-03-19T10:38:20;13.90;54.00
4097;DHT22;2062;50.694;7.246;2023-03-19T10:41:00;13.90;54.20
4097;DHT22;2062;50.694;7.246;2023-03-19T10:43:29;14.00;54.10
4097;DHT22;2062;50.694;7.246;2023-03-19T10:45:59;14.10;54.00
4097;DHT22;2062;50.694;7.246;2023-03-19T10:48:26;14.10;54.00
4097;DHT22;2062;50.694;7.246;2023-03-19T10:50:56;14.20;53.80
4097;DHT22;2062;50.694;7.246;2023-03-19T10:53:32;14.30;54.00
4097;DHT22;2062;50.694;7.246;2023-03-19T10:56:02;14.50;54.10
4097;DHT22;2062;50.694;7.246;2023-03-19T10:58:31;14.40;53.80
4097;DHT22;2062;50.694;7.246;2023-03-19T11:01:03;14.60;53.90
4097;DHT22;2062;50.694;7.246;2023-03-19T11:03:33;14.60;53.80
4097;DHT22;2062;50.694;7.246;2023-03-19T11:06:21;14.60;53.70
4097;DHT22;2062;50.694;7.246;2023-03-19T11:08:57;14.70;53.70
4097;DHT22;2062;50.694;7.246;2023-03-19T11:11:35;14.80;53.70
4097;DHT22;2062;50.694;7.246;2023-03-19T11:14:16;14.80;53.70
4097;DHT22;2062;50.694;7.246;2023-03-19T11:16:53;14.90;53.90
4097;DHT22;2062;50.694;7.246;2023-03-19T11:19:23;15.00;54.10
4097;DHT22;2062;50.694;7.246;2023-03-19T11:22:06;15.10;54.00
4097;DHT22;2062;50.694;7.246;2023-03-19T11:24:36;15.20;53.70
4097;DHT22;2062;50.694;7.246;2023-03-19T11:27:05;15.30;54.30
4097;DHT22;2062;50.694;7.246;2023-03-19T11:29:34;15.30;53.40
4097;DHT22;2062;50.694;7.246;2023-03-19T11:34:59;15.50;53.50
4097;DHT22;2062;50.694;7.246;2023-03-19T11:37:46;15.60;53.10
4097;DHT22;2062;50.694;7.246;2023-03-19T11:40:20;15.60;53.10
4097;DHT22;2062;50.694;7.246;2023-03-19T11:46:09;15.80;53.00
4097;DHT22;2062;50.694;7.246;2023-03-19T11:48:47;15.80;52.80
4097;DHT22;2062;50.694;7.246;2023-03-19T11:51:19;15.90;52.90
4097;DHT22;2062;50.694;7.246;2023-03-19T11:53:58;16.00;52.90
4097;DHT22;2062;50.694;7.246;2023-03-19T11:56:31;16.10;53.10
4097;DHT22;2062;50.694;7.246;2023-03-19T11:59:23;16.20;53.00
4097;DHT22;2062;50.694;7.246;2023-03-19T12:05:28;16.30;52.90
4097;DHT22;2062;50.694;7.246;2023-03-19T12:08:18;16.30;52.40
4097;DHT22;2062;50.694;7.246;2023-03-19T12:10:57;16.40;52.00
4097;DHT22;2062;50.694;7.246;2023-03-19T12:13:37;16.40;51.90
4097;DHT22;2062;50.694;7.246;2023-03-19T12:16:15;16.30;51.90
4097;DHT22;2062;50.694;7.246;2023-03-19T12:19:01;16.30;51.70
4097;DHT22;2062;50.694;7.246;2023-03-19T12:21:38;16.30;51.70
4097;DHT22;2062;50.694;7.246;2023-03-19T12:24:13;16.30;51.70
4097;DHT22;2062;50.694;7.246;2023-03-19T12:26:54;16.20;51.70
4097;DHT22;2062;50.694;7.246;2023-03-19T12:29:28;16.20;51.80
4097;DHT22;2062;50.694;7.246;2023-03-19T12:32:13;16.20;52.00
4097;DHT22;2062;50.694;7.246;2023-03-19T12:34:51;16.20;52.00
4097;DHT22;2062;50.694;7.246;2023-03-19T12:37:27;16.20;52.10
4097;DHT22;2062;50.694;7.246;2023-03-19T12:40:10;16.20;52.20
4097;DHT22;2062;50.694;7.246;2023-03-19T12:42:42;16.20;52.10
4097;DHT22;2062;50.694;7.246;2023-03-19T12:45:25;16.30;52.20
4097;DHT22;2062;50.694;7.246;2023-03-19T12:47:57;16.30;52.10
4097;DHT22;2062;50.694;7.246;2023-03-19T12:50:28;16.30;51.90
4097;DHT22;2062;50.694;7.246;2023-03-19T12:52:58;16.30;51.90
4097;DHT22;2062;50.694;7.246;2023-03-19T12:55:33;16.20;51.60
4097;DHT22;2062;50.694;7.246;2023-03-19T12:58:45;16.20;51.50
4097;DHT22;2062;50.694;7.246;2023-03-19T13:01:34;16.10;52.00
4097;DHT22;2062;50.694;7.246;2023-03-19T13:04:15;16.20;52.10
4097;DHT22;2062;50.694;7.246;2023-03-19T13:06:48;16.20;52.30
4097;DHT22;2062;50.694;7.246;2023-03-19T13:09:26;16.20;52.30
4097;DHT22;2062;50.694;7.246;2023-03-19T13:11:57;16.30;52.40
4097;DHT22;2062;50.694;7.246;2023-03-19T13:14:31;16.40;52.20
4097;DHT22;2062;50.694;7.246;2023-03-19T13:17:07;16.40;51.90
4097;DHT22;2062;50.694;7.246;2023-03-19T13:19:42;16.50;52.00
4097;DHT22;2062;50.694;7.246;2023-03-19T13:22:12;16.60;51.90
4097;DHT22;2062;50.694;7.246;2023-03-19T13:24:41;16.60;51.40
4097;DHT22;2062;50.694;7.246;2023-03-19T13:27:15;16.60;51.40
4097;DHT22;2062;50.694;7.246;2023-03-19T13:29:59;16.60;51.30
4097;DHT22;2062;50.694;7.246;2023-03-19T13:32:34;16.60;51.40
4097;DHT22;2062;50.694;7.246;2023-03-19T13:35:30;16.70;51.40
4097;DHT22;2062;50.694;7.246;2023-03-19T13:37:59;16.70;51.90
4097;DHT22;2062;50.694;7.246;2023-03-19T13:40:39;16.70;51.20
4097;DHT22;2062;50.694;7.246;2023-03-19T13:43:21;16.70;51.00
4097;DHT22;2062;50.694;7.246;2023-03-19T13:45:53;16.80;50.90
4097;DHT22;2062;50.694;7.246;2023-03-19T13:48:35;16.80;51.10
4097;DHT22;2062;50.694;7.246;2023-03-19T13:51:08;16.80;51.00
4097;DHT22;2062;50.694;7.246;2023-03-19T13:53:53;16.90;51.00
4097;DHT22;2062;50.694;7.246;2023-03-19T13:56:20;16.90;50.90
4097;DHT22;2062;50.694;7.246;2023-03-19T13:58:49;16.90;50.70
4097;DHT22;2062;50.694;7.246;2023-03-19T14:01:49;16.90;50.60
4097;DHT22;2062;50.694;7.246;2023-03-19T14:04:22;17.00;50.20
4097;DHT22;2062;50.694;7.246;2023-03-19T14:06:52;17.00;50.20
4097;DHT22;2062;50.694;7.246;2023-03-19T14:09:37;17.00;50.40
4097;DHT22;2062;50.694;7.246;2023-03-19T14:12:29;17.00;50.50
4097;DHT22;2062;50.694;7.246;2023-03-19T14:14:59;17.00;50.90
4097;DHT22;2062;50.694;7.246;2023-03-19T14:17:30;17.00;51.30
4097;DHT22;2062;50.694;7.246;2023-03-19T14:20:04;17.10;51.40
4097;DHT22;2062;50.694;7.246;2023-03-19T14:22:53;17.10;51.50
4097;DHT22;2062;50.694;7.246;2023-03-19T14:25:22;17.10;51.30
4097;DHT22;2062;50.694;7.246;2023-03-19T14:27:50;17.20;51.30
4097;DHT22;2062;50.694;7.246;2023-03-19T14:30:28;17.40;51.20
4097;DHT22;2062;50.694;7.246;2023-03-19T14:33:00;17.30;51.30
4097;DHT22;2062;50.694;7.246;2023-03-19T14:35:31;17.50;51.20
4097;DHT22;2062;50.694;7.246;2023-03-19T14:38:00;17.60;51.20
4097;DHT22;2062;50.694;7.246;2023-03-19T14:40:35;17.70;51.20
4097;DHT22;2062;50.694;7.246;2023-03-19T14:43:10;17.90;51.10
4097;DHT22;2062;50.694;7.246;2023-03-19T14:45:47;18.00;51.00
4097;DHT22;2062;50.694;7.246;2023-03-19T14:48:23;18.20;50.70
4097;DHT22;2062;50.694;7.246;2023-03-19T14:53:57;18.50;50.30
4097;DHT22;2062;50.694;7.246;2023-03-19T14:56:30;18.70;50.20
4097;DHT22;2062;50.694;7.246;2023-03-19T14:58:58;18.70;50.00
4097;DHT22;2062;50.694;7.246;2023-03-19T15:01:31;18.80;49.30
4097;DHT22;2062;50.694;7.246;2023-03-19T15:04:02;18.90;49.60
4097;DHT22;2062;50.694;7.246;2023-03-19T15:06:33;19.00;49.30
4097;DHT22;2062;50.694;7.246;2023-03-19T15:09:01;19.00;49.10
4097;DHT22;2062;50.694;7.246;2023-03-19T15:11:53;19.10;48.80
4097;DHT22;2062;50.694;7.246;2023-03-19T15:14:33;19.20;47.90
4097;DHT22;2062;50.694;7.246;2023-03-19T15:17:08;19.20;47.50
4097;DHT22;2062;50.694;7.246;2023-03-19T15:19:41;19.10;47.50
4097;DHT22;2062;50.694;7.246;2023-03-19T15:22:12;19.10;47.10
4097;DHT22;2062;50.694;7.246;2023-03-19T15:24:39;19.10;46.70
4097;DHT22;2062;50.694;7.246;2023-03-19T15:27:17;19.00;46.60
4097;DHT22;2062;50.694;7.246;2023-03-19T15:29:44;18.90;46.20
4097;DHT22;2062;50.694;7.246;2023-03-19T15:32:11;18.90;46.10
4097;DHT22;2062;50.694;7.246;2023-03-19T15:34:38;18.80;46.30
4097;DHT22;2062;50.694;7.246;2023-03-19T15:37:10;18.80;46.10
4097;DHT22;2062;50.694;7.246;2023-03-19T15:39:41;18.70;46.00
4097;DHT22;2062;50.694;7.246;2023-03-19T15:42:10;18.70;46.30
4097;DHT22;2062;50.694;7.246;2023-03-19T15:44:40;18.60;45.40
4097;DHT22;2062;50.694;7.246;2023-03-19T15:47:12;18.50;45.20
4097;DHT22;2062;50.694;7.246;2023-03-19T15:49:42;18.50;45.30
4097;DHT22;2062;50.694;7.246;2023-03-19T15:52:13;18.40;45.20
4097;DHT22;2062;50.694;7.246;2023-03-19T15:54:42;18.30;45.00
4097;DHT22;2062;50.694;7.246;2023-03-19T15:57:11;18.20;44.70
4097;DHT22;2062;50.694;7.246;2023-03-19T15:59:38;18.20;44.60
4097;DHT22;2062;50.694;7.246;2023-03-19T16:02:14;18.00;44.40
4097;DHT22;2062;50.694;7.246;2023-03-19T16:04:44;18.00;44.50
4097;DHT22;2062;50.694;7.246;2023-03-19T16:07:23;17.90;44.60
4097;DHT22;2062;50.694;7.246;2023-03-19T16:09:50;17.80;43.50
4097;DHT22;2062;50.694;7.246;2023-03-19T16:12:47;17.80;44.20
4097;DHT22;2062;50.694;7.246;2023-03-19T16:15:24;17.70;43.90
4097;DHT22;2062;50.694;7.246;2023-03-19T16:17:54;17.70;43.90
4097;DHT22;2062;50.694;7.246;2023-03-19T16:20:21;17.50;43.90
4097;DHT22;2062;50.694;7.246;2023-03-19T16:22:52;17.50;43.90
4097;DHT22;2062;50.694;7.246;2023-03-19T16:25:21;17.40;44.20
4097;DHT22;2062;50.694;7.246;2023-03-19T16:27:50;17.40;44.50
4097;DHT22;2062;50.694;7.246;2023-03-19T16:30:20;17.30;44.60
4097;DHT22;2062;50.694;7.246;2023-03-19T16:32:57;17.20;44.60
4097;DHT22;2062;50.694;7.246;2023-03-19T16:35:24;17.20;45.00
4097;DHT22;2062;50.694;7.246;2023-03-19T16:37:54;17.20;45.30